Latest Weather Observations for Portland Airport

IDV60801

Issued at 3:02 am EDT Tuesday 23 December 2014 (issued every 30 minutes, with the page automatically refreshed every 10 minutes)

About weather observations | Map of weather stations | Latest weather observations for VIC | Other Formats
Station Details ID: 090171 Name: CASHMORE AIRPORT Lat: -38.31 Lon: 141.47 Height: 80.9 m
Data from the previous 72 hours. | See also: Recent months at Portland Airport
Date/Time
EDT
Temp
°C
App
Temp
°C
Dew
Point
Rel
Hum
%
Delta-T
°C
Wind Press
QNH
hPa
Press
MSL
hPa
Rain
since 9 am
mm
Dir
 
Spd
km/h
Gust
km/h
Spd
kts
Gust
kts
23/03:00am 16.3 16.5 15.8 97 0.3 N 9 11 5 6 1007.3 1007.2 1.0
23/02:30am 16.4 16.3 15.9 97 0.3 N 11 13 6 7 1007.4 1007.3 1.2
23/02:00am 16.4 16.2 15.8 96 0.4 N 11 15 6 8 1007.7 1007.6 1.2
23/01:30am 16.3 16.1 15.7 96 0.4 NNE 11 13 6 7 1007.6 1007.5 1.2
23/01:00am 16.4 17.9 15.6 95 0.5 ESE 2 7 1 4 1007.3 1007.2 0.6
23/12:30am 16.4 17.1 15.6 95 0.5 ESE 6 7 3 4 1007.9 1007.8 0.2
 
Date/Time
EDT
Temp
°C
App
Temp
°C
Dew
Point
Rel
Hum
%
Delta-T
°C
Wind Press
QNH
hPa
Press
MSL
hPa
Rain
since 9 am
mm
Dir
 
Spd
km/h
Gust
km/h
Spd
kts
Gust
kts
22/11:30pm 16.8 17.6 15.8 94 0.6 ESE 6 7 3 4 1008.4 1008.3 0.0
22/11:00pm 16.3 17.2 15.2 93 0.6 ESE 4 7 2 4 1008.1 1008.0 0.0
22/10:30pm 16.3 17.9 15.0 92 0.8 CALM 0 7 0 4 1008.1 1008.0 0.0
22/10:00pm 16.8 17.8 15.3 91 0.9 ESE 4 7 2 4 1008.1 1008.0 0.0
22/09:30pm 17.0 18.0 15.3 90 1.0 ESE 4 9 2 5 1008.1 1008.0 0.0
22/09:00pm 17.3 18.7 15.5 89 1.1 ESE 2 6 1 3 1008.4 1008.3 0.0
22/08:30pm 17.6 19.4 15.4 87 1.3 CALM 0 6 0 3 1008.3 1008.2 0.0
22/08:00pm 17.7 18.1 15.3 86 1.4 ESE 7 11 4 6 1008.3 1008.2 0.0
22/07:30pm 18.0 19.0 15.4 85 1.5 E 4 7 2 4 1008.0 1007.9 0.0
22/07:00pm 18.1 18.5 15.2 83 1.7 ESE 7 11 4 6 1007.4 1007.3 0.0
22/06:30pm 18.3 18.4 15.6 84 1.6 SSE 9 11 5 6 1007.0 1006.9 0.0
22/05:30pm 18.4 17.6 15.1 81 1.9 SSW 13 20 7 11 1007.6 1007.5 0.0
22/05:00pm 19.9 20.4 15.5 76 2.6 SE 7 11 4 6 1007.8 1007.7 0.0
22/04:30pm 19.3 18.6 15.4 78 2.3 SE 13 20 7 11 1007.0 1006.9 0.0
22/04:00pm 20.2 19.3 15.8 76 2.6 SE 15 24 8 13 1007.7 1007.6 0.0
22/03:30pm 19.5 17.5 15.6 78 2.3 SE 20 28 11 15 1007.1 1007.0 0.0
22/03:00pm 20.8 19.8 15.6 72 3.1 ESE 15 20 8 11 1008.1 1008.0 0.0
22/02:30pm 22.8 22.1 15.4 63 4.5 ESE 13 19 7 10 1007.9 1007.8 0.0
22/02:00pm 21.5 21.3 14.6 65 4.1 SSE 9 13 5 7 1008.8 1008.7 0.0
22/01:30pm 21.6 21.9 15.0 66 3.9 WSW 7 13 4 7 1009.6 1009.5 0.0
22/01:00pm 20.7 20.3 15.3 71 3.2 N 11 17 6 9 1009.9 1009.8 0.0
22/12:00pm 19.0 16.6 13.8 72 3.0 ENE 19 33 10 18 1009.1 1009.0 0.0
22/11:30am 18.3 16.7 14.0 76 2.5 ENE 15 24 8 13 1009.9 1009.8 0.0
22/11:00am 17.2 15.1 13.5 79 2.1 ENE 17 28 9 15 1010.0 1009.9 0.0
22/10:34am 16.7 12.5 13.6 82 1.8 ENE 28 46 15 25 1009.7 1009.6 0.0
22/10:32am 16.7 13.0 13.8 83 1.6 ENE 26 41 14 22 1009.7 1009.6 0.0
22/10:30am 16.7 13.3 13.8 83 1.6 ENE 24 39 13 21 1009.7 1009.6 0.0
22/10:00am 17.0 13.2 14.8 87 1.3 E 28 50 15 27 1010.2 1010.1 0.0
22/09:39am 16.6 12.6 14.2 86 1.4 E 28 46 15 25 1010.4 1010.3 0.0
22/09:30am 16.4 13.3 14.4 88 1.1 ENE 24 35 13 19 1010.6 1010.5 0.0
22/09:20am 16.4 13.3 14.4 88 1.1 E 24 35 13 19 1010.7 1010.6 0.0
22/09:12am 16.4 12.4 14.2 87 1.3 E 28 46 15 25 1010.6 1010.5 0.0
22/08:30am 16.0 12.6 14.7 92 0.7 ESE 26 37 14 20 1010.1 1010.0 0.0
22/08:00am 16.0 13.3 14.7 92 0.7 ESE 22 35 12 19 1010.8 1010.7 0.0
22/07:44am 15.9 12.8 14.4 91 0.9 SE 24 37 13 20 1011.5 1011.4 0.0
22/07:30am 16.0 15.0 14.5 91 0.9 ESE 13 19 7 10 1012.9 1012.8 0.0
22/07:09am 15.9 15.2 14.4 91 0.9 E 11 17 6 9 1013.2 1013.1 0.0
22/07:00am 15.7 15.0 14.2 91 0.9 E 11 20 6 11 1012.6 1012.5 0.0
22/06:30am 15.5 13.5 14.0 91 0.8 E 17 24 9 13 1011.7 1011.6 0.0
22/06:18am 15.4 13.4 13.9 91 0.8 E 17 24 9 13 1011.8 1011.7 0.0
22/05:30am 15.4 14.0 13.4 88 1.1 SE 13 17 7 9 1012.6 1012.5 0.0
22/05:00am 15.3 13.5 13.3 88 1.1 E 15 22 8 12 1012.1 1012.1 0.0
22/04:30am 15.3 12.5 13.1 87 1.2 ENE 20 32 11 17 1011.7 1011.6 0.0
22/04:00am 15.1 11.9 13.0 87 1.2 E 22 33 12 18 1011.4 1011.3 0.0
22/03:57am 15.1 11.9 13.0 87 1.2 E 22 33 12 18 1011.4 1011.3 0.0
22/03:30am 15.0 11.6 12.5 85 1.4 E 22 35 12 19 1011.7 1011.6 0.0
22/03:00am 14.7 12.2 12.2 85 1.4 E 17 24 9 13 1012.0 1012.0 0.0
22/02:30am 14.7 12.5 12.2 85 1.4 ESE 15 22 8 12 1012.9 1012.8 0.0
22/02:00am 14.8 13.0 12.1 84 1.5 ESE 13 19 7 10 1013.7 1013.6 0.0
22/01:30am 14.9 12.7 12.0 83 1.6 ESE 15 20 8 11 1014.1 1014.0 0.0
22/01:00am 14.8 13.0 12.1 84 1.5 ESE 13 19 7 10 1014.6 1014.5 0.0
22/12:30am 14.6 12.3 11.9 84 1.5 ESE 15 24 8 13 1014.6 1014.5 0.0
22/12:00am 15.0 12.8 12.0 82 1.6 ESE 15 26 8 14 1015.0 1014.9 0.0
 
Date/Time
EDT
Temp
°C
App
Temp
°C
Dew
Point
Rel
Hum
%
Delta-T
°C
Wind Press
QNH
hPa
Press
MSL
hPa
Rain
since 9 am
mm
Dir
 
Spd
km/h
Gust
km/h
Spd
kts
Gust
kts
21/11:30pm 15.1 12.5 12.1 82 1.6 SE 17 22 9 12 1015.3 1015.2 0.0
21/11:00pm 15.1 12.9 12.2 83 1.6 SE 15 20 8 11 1015.5 1015.4 0.0
21/10:30pm 15.1 12.9 12.2 83 1.6 SE 15 20 8 11 1015.4 1015.3 0.0
21/10:00pm 15.2 13.1 12.5 84 1.5 SE 15 20 8 11 1015.3 1015.2 0.0
21/09:52pm 15.2 13.1 12.5 84 1.5 SE 15 20 8 11 1015.3 1015.2 0.0
21/09:30pm 15.2 13.1 12.5 84 1.5 SE 15 22 8 12 1015.1 1015.0 0.0
21/09:00pm 15.6 13.1 12.4 81 1.8 SE 17 26 9 14 1015.0 1014.9 0.0
21/08:30pm 15.9 13.1 12.6 81 1.8 SE 19 26 10 14 1014.8 1014.7 0.0
21/08:08pm 16.1 13.7 12.7 80 1.9 SE 17 24 9 13 1014.6 1014.5 0.0
21/08:00pm 16.1 14.0 12.5 79 2.0 SE 15 22 8 12 1014.5 1014.4 0.0
21/07:30pm 16.3 13.8 12.3 77 2.2 SE 17 26 9 14 1014.3 1014.2 0.0
21/07:16pm 16.5 13.7 12.5 77 2.2 SSE 19 24 10 13 1014.3 1014.2 0.0
21/07:00pm 16.8 14.0 12.7 77 2.3 SSE 19 28 10 15 1014.1 1014.0 0.0
21/06:30pm 16.8 14.1 12.9 78 2.2 SSE 19 26 10 14 1013.8 1013.7 0.0
21/06:17pm 16.8 14.2 13.1 79 2.1 SSE 19 28 10 15 1013.9 1013.8 0.0
21/06:00pm 17.5 15.0 13.4 77 2.3 S 19 26 10 14 1013.8 1013.7 0.0
21/05:30pm 18.1 16.0 13.6 75 2.6 S 17 28 9 15 1013.8 1013.7 0.0
21/05:00pm 18.4 16.0 13.9 75 2.6 S 19 26 10 14 1013.8 1013.7 0.0
21/04:30pm 19.5 18.0 14.1 71 3.1 SSE 15 20 8 11 1013.7 1013.6 0.0
21/04:00pm 19.8 18.3 14.2 70 3.2 SSE 15 20 8 11 1013.9 1013.8 0.0
21/03:30pm 19.0 17.5 14.1 73 2.8 SSE 15 20 8 11 1014.0 1013.9 0.0
21/03:00pm 19.9 18.7 14.0 69 3.4 S 13 19 7 10 1014.1 1014.0 0.0
21/02:30pm 20.4 19.1 14.7 70 3.3 S 15 24 8 13 1014.3 1014.2 0.0
21/02:00pm 20.2 18.5 14.8 71 3.2 S 17 22 9 12 1014.5 1014.4 0.0
21/01:30pm 20.1 18.8 13.8 67 3.6 S 13 19 7 10 1014.6 1014.5 0.0
21/01:00pm 19.1 17.2 14.1 73 2.9 S 17 24 9 13 1014.8 1014.7 0.0
21/12:45pm 18.8 16.9 14.3 75 2.6 S 17 24 9 13 1014.9 1014.8 0.0
21/12:30pm 19.1 17.3 14.4 74 2.7 S 17 24 9 13 1015.0 1014.9 0.0
21/12:13pm 18.4 16.1 14.1 76 2.5 S 19 32 10 17 1015.3 1015.2 0.0
21/12:00pm 18.6 16.0 13.7 73 2.8 S 20 30 11 16 1015.4 1015.3 0.0
21/11:30am 22.6 19.3 12.8 54 5.6 WSW 22 28 12 15 1014.7 1014.6 0.0
21/11:00am 22.1 17.9 11.2 50 6.1 W 24 30 13 16 1014.4 1014.3 0.0
21/10:30am 21.9 18.8 11.6 52 5.8 WSW 19 22 10 12 1014.3 1014.2 0.0
21/10:00am 22.5 21.0 13.0 55 5.5 WSW 13 17 7 9 1013.9 1013.8 0.0
21/09:30am 21.3 21.5 13.2 60 4.7 N 4 9 2 5 1013.9 1013.8 0.0
21/09:00am 19.7 20.9 13.9 69 3.3 CALM 0 6 0 3 1014.0 1013.9 0.0
21/08:30am 16.2 15.8 12.4 78 2.1 NE 6 11 3 6 1013.8 1013.7 0.0
21/08:00am 15.0 15.7 13.4 90 0.9 ENE 2 7 1 4 1013.8 1013.7 0.0
21/07:30am 13.2 12.3 12.7 97 0.3 NE 9 11 5 6 1013.6 1013.5 0.0
21/07:00am 11.8 11.1 11.3 97 0.3 NE 6 11 3 6 1013.3 1013.2 0.0
21/06:30am 10.6 9.0 10.1 97 0.3 NE 9 13 5 7 1013.2 1013.1 0.0
21/06:00am 10.6 8.9 10.0 96 0.3 NE 9 11 5 6 1013.3 1013.2 0.0
21/05:30am 10.7 9.4 10.1 96 0.3 NE 7 9 4 5 1012.9 1012.8 0.0
21/05:00am 11.2 10.1 10.6 96 0.3 ENE 7 11 4 6 1013.0 1012.9 0.0
21/04:30am 10.4 9.0 9.6 95 0.4 NE 7 9 4 5 1013.5 1013.4 0.0
21/04:00am 10.2 8.9 9.3 94 0.4 NNE 6 9 3 5 1014.2 1014.1 0.0
21/03:30am 10.8 9.1 9.9 94 0.5 NNE 9 11 5 6 1014.3 1014.2 0.0
21/03:00am 11.4 10.2 10.3 93 0.6 NE 7 11 4 6 1013.9 1013.8 0.0
21/02:30am 11.9 10.1 10.8 93 0.6 NE 11 13 6 7 1014.0 1013.9 0.0
21/02:00am 11.6 9.8 10.7 94 0.5 NE 11 15 6 8 1014.4 1014.3 0.0
21/01:30am 11.2 9.2 10.3 94 0.5 NE 11 13 6 7 1014.8 1014.7 0.0
21/01:00am 11.2 10.0 10.4 95 0.4 E 7 11 4 6 1015.5 1015.4 0.0
21/12:30am 9.7 9.4 8.6 93 0.5 CALM 0 0 0 0 1016.4 1016.3 0.0
21/12:00am 10.1 9.9 8.9 92 0.6 CALM 0 0 0 0 1016.6 1016.5 0.0
 
Date/Time
EDT
Temp
°C
App
Temp
°C
Dew
Point
Rel
Hum
%
Delta-T
°C
Wind Press
QNH
hPa
Press
MSL
hPa
Rain
since 9 am
mm
Dir
 
Spd
km/h
Gust
km/h
Spd
kts
Gust
kts
20/11:30pm 11.3 10.2 9.9 91 0.7 SE 6 7 3 4 1017.0 1016.9 0.0
20/11:00pm 11.8 10.7 10.0 89 0.9 SE 6 7 3 4 1017.2 1017.1 0.0
20/10:30pm 12.1 10.8 10.0 87 1.1 SE 7 9 4 5 1017.4 1017.3 0.0
20/10:00pm 12.7 11.6 10.1 84 1.3 SE 6 7 3 4 1017.4 1017.3 0.0
20/09:30pm 13.6 12.6 10.2 80 1.8 SE 6 9 3 5 1017.4 1017.3 0.0
20/09:00pm 14.8 13.6 10.2 74 2.4 SSE 7 9 4 5 1017.4 1017.3 0.0
20/08:30pm 15.7 14.2 10.7 72 2.7 S 9 13 5 7 1017.6 1017.5 0.0
20/08:00pm 16.3 14.4 10.6 69 3.0 S 11 15 6 8 1017.4 1017.3 0.0
20/07:30pm 17.0 15.2 10.8 67 3.3 S 11 15 6 8 1017.2 1017.1 0.0
20/07:00pm 17.2 14.6 10.6 65 3.5 S 15 20 8 11 1016.9 1016.8 0.0
20/06:30pm 17.5 14.8 10.4 63 3.8 S 15 20 8 11 1017.1 1017.0 0.0
20/06:00pm 18.2 15.7 11.0 63 3.9 SSW 15 24 8 13 1017.2 1017.1 0.0
20/05:30pm 18.0 15.2 10.1 60 4.2 S 15 24 8 13 1017.4 1017.3 0.0
20/05:00pm 19.2 15.8 10.7 58 4.6 WSW 19 24 10 13 1017.5 1017.4 0.0
20/04:30pm 19.3 16.1 11.3 60 4.4 W 19 24 10 13 1017.8 1017.7 0.0
20/04:00pm 19.5 16.7 11.5 60 4.4 WSW 17 24 9 13 1018.0 1017.9 0.0
20/03:30pm 18.6 15.8 11.4 63 3.9 W 17 26 9 14 1018.5 1018.4 0.0
20/03:00pm 18.4 15.0 10.7 61 4.2 W 19 28 10 15 1018.9 1018.8 0.0
20/02:30pm 18.4 14.8 10.7 61 4.2 W 20 33 11 18 1019.0 1018.9 0.0
20/02:00pm 18.6 15.1 10.9 61 4.2 W 20 28 11 15 1019.3 1019.2 0.0
20/01:30pm 18.0 14.7 11.6 66 3.5 W 20 30 11 16 1019.5 1019.4 0.0
20/01:00pm 18.4 15.1 11.0 62 4.0 W 19 28 10 15 1019.6 1019.5 0.0
20/12:30pm 17.8 14.2 10.7 63 3.8 W 20 30 11 16 1019.8 1019.7 0.0
20/12:00pm 17.7 14.1 9.8 60 4.2 W 19 32 10 17 1019.9 1019.8 0.0
20/11:30am 17.1 13.6 10.9 67 3.3 W 20 26 11 14 1020.0 1019.9 0.0
20/11:00am 17.3 13.8 10.9 66 3.4 WSW 20 28 11 15 1020.0 1019.9 0.0
20/10:30am 16.7 13.2 10.1 65 3.5 W 19 28 10 15 1020.1 1020.0 0.0
20/10:00am 16.6 13.2 10.5 67 3.2 W 19 30 10 16 1020.0 1019.9 0.0
20/09:30am 16.7 13.4 10.8 68 3.2 W 19 24 10 13 1019.9 1019.8 0.0
20/09:00am 16.2 12.7 10.3 68 3.1 W 19 30 10 16 1019.6 1019.5 0.0
20/08:30am 15.6 12.4 9.9 69 3.0 WSW 17 26 9 14 1019.3 1019.2 0.0
20/08:00am 15.3 12.2 10.3 72 2.6 WSW 17 24 9 13 1018.9 1018.8 0.0
20/07:30am 15.0 12.3 10.2 73 2.5 WSW 15 24 8 13 1018.6 1018.5 0.0
20/07:00am 14.6 12.1 9.8 73 2.5 WSW 13 15 7 8 1018.3 1018.2 0.0
20/06:30am 14.5 11.2 9.7 73 2.5 WSW 17 24 9 13 1018.2 1018.1 0.0
20/06:00am 14.5 12.2 10.3 76 2.2 W 13 19 7 10 1018.1 1018.0 0.0
20/05:30am 14.5 12.1 9.9 74 2.4 W 13 17 7 9 1017.8 1017.7 0.0
20/05:00am 14.5 11.3 9.9 74 2.4 W 17 20 9 11 1017.9 1017.8 0.0
20/04:30am 14.3 11.9 9.9 75 2.3 W 13 19 7 10 1017.9 1017.8 0.0
20/04:00am 14.3 11.0 9.7 74 2.4 W 17 24 9 13 1018.0 1017.9 0.0
20/03:30am 14.3 12.0 10.3 77 2.1 W 13 20 7 11 1018.1 1018.0 0.0

Other Formats:

Comma delimited format used in spreadsheet applications
http://www.bom.gov.au/fwo/IDV60801/IDV60801.94828.axf

JavaScript Object Notation format (JSON) in row-major order
http://www.bom.gov.au/fwo/IDV60801/IDV60801.94828.json